Terminal Aerodrome Forecast
Issued by NWS

Home | Current Version | Previous Version | Text Only | Print | Product List | Glossary On
Versions: 1 2 3 4 5 6 7 8 9 10 11 12 13 14 15 16 17 18 19 20 21 22 23 24 25 26 27
000
FTUS44 KFWD 291500 AAC
TAFFTW
TAF AMD
KFTW 291519Z 2915/3012 14005KT P6SM SCT008
     FM291600 16009KT P6SM SCT030 BKN100
     FM292200 17009KT P6SM VCTS BKN060CB
     FM300300 16010KT P6SM BKN060=

USA.gov is the U.S. government's official web portal to all federal, state and local government web resources and services.